Time;durP1;ratioP1;P1;durP2;ratioP2;P2;SDS_P1;SDS_P2;PMS_P1;PMS_P2;Temp;Humidity;BMP_temperature;BMP_pressure;BME280_temperature;BME280_humidity;BME280_pressure;Samples;Min_cycle;Max_cycle;Signal;HPM_P1;HPM_P2
2021/03/13 00:00:09;;;;;;;10.65;3.85;;;7.70;99.90;;;;;;5051844;28;20131;-75
2021/03/13 00:02:35;;;;;;;9.50;3.95;;;7.70;99.90;;;;;;5051821;28;20134;-74
2021/03/13 00:05:03;;;;;;;9.45;3.65;;;7.80;99.90;;;;;;5051651;28;20124;-74
2021/03/13 00:07:30;;;;;;;8.63;3.72;;;7.80;99.90;;;;;;5050996;28;20567;-75
2021/03/13 00:09:56;;;;;;;9.95;3.88;;;7.80;99.90;;;;;;5051485;28;20088;-75
2021/03/13 00:12:23;;;;;;;8.90;3.53;;;7.80;99.90;;;;;;5050891;28;20131;-75
2021/03/13 00:14:49;;;;;;;6.75;3.78;;;7.70;99.90;;;;;;5051558;28;20132;-77
2021/03/13 00:17:15;;;;;;;9.07;3.80;;;7.60;99.90;;;;;;5052080;28;20095;-76
2021/03/13 00:19:42;;;;;;;10.50;4.38;;;7.40;99.90;;;;;;5051168;28;20092;-76
2021/03/13 00:22:11;;;;;;;7.22;3.70;;;7.20;99.90;;;;;;5051166;28;20124;-76
2021/03/13 00:24:37;;;;;;;9.55;4.18;;;7.20;99.90;;;;;;5050698;28;20047;-78
2021/03/13 00:27:04;;;;;;;9.13;3.65;;;7.10;99.90;;;;;;5050883;28;20069;-76
2021/03/13 00:29:31;;;;;;;10.25;4.22;;;7.10;99.90;;;;;;5050990;28;20127;-76
2021/03/13 00:31:57;;;;;;;10.38;4.60;;;7.00;99.90;;;;;;5050907;28;20136;-77
2021/03/13 00:34:24;;;;;;;7.20;4.32;;;7.10;99.90;;;;;;5051278;28;20075;-77
2021/03/13 00:36:51;;;;;;;9.15;4.10;;;7.10;99.90;;;;;;5051071;28;20136;-76
2021/03/13 00:39:18;;;;;;;10.38;4.40;;;7.10;99.90;;;;;;5051488;28;20059;-76
2021/03/13 00:41:45;;;;;;;7.95;4.03;;;7.10;99.90;;;;;;5052059;28;20041;-77
2021/03/13 00:44:11;;;;;;;13.15;4.30;;;7.10;99.90;;;;;;5051230;28;20479;-77
2021/03/13 00:46:40;;;;;;;9.02;4.43;;;7.10;99.90;;;;;;5050918;28;20136;-76
2021/03/13 00:49:07;;;;;;;13.68;4.40;;;7.10;99.90;;;;;;5051142;28;20053;-77
2021/03/13 00:51:33;;;;;;;10.27;4.57;;;7.20;99.90;;;;;;5049839;28;20136;-76
2021/03/13 00:53:59;;;;;;;9.80;4.00;;;7.20;99.90;;;;;;5054681;28;20081;-77
2021/03/13 00:56:27;;;;;;;10.30;4.28;;;7.20;99.90;;;;;;5055063;28;20467;-76
2021/03/13 00:58:53;;;;;;;9.10;4.30;;;7.20;99.90;;;;;;5055312;28;20080;-76
2021/03/13 01:01:19;;;;;;;13.55;4.50;;;7.20;99.90;;;;;;5055066;28;20055;-76
2021/03/13 01:03:46;;;;;;;11.20;4.45;;;7.20;99.90;;;;;;5054989;28;20063;-76
2021/03/13 01:06:12;;;;;;;11.40;4.28;;;7.20;99.90;;;;;;5054649;28;20110;-75
2021/03/13 01:08:38;;;;;;;13.00;4.57;;;7.30;99.90;;;;;;5054776;28;20087;-75
2021/03/13 01:11:05;;;;;;;11.68;4.63;;;7.30;99.90;;;;;;5054998;28;20100;-76
2021/03/13 01:13:32;;;;;;;10.63;4.57;;;7.40;99.90;;;;;;5054852;28;20080;-73
2021/03/13 01:15:59;;;;;;;8.55;4.43;;;7.40;99.90;;;;;;5054469;28;20103;-74
2021/03/13 01:18:25;;;;;;;12.95;5.03;;;7.40;99.90;;;;;;5054809;28;20127;-76
2021/03/13 01:20:52;;;;;;;8.57;4.63;;;7.40;99.90;;;;;;5054525;28;20045;-76
2021/03/13 01:23:18;;;;;;;10.88;4.63;;;7.40;99.90;;;;;;5054586;28;20087;-77
2021/03/13 01:25:45;;;;;;;10.05;5.00;;;7.50;99.90;;;;;;5054255;28;20147;-75
2021/03/13 01:28:11;;;;;;;10.80;4.82;;;7.50;99.90;;;;;;5054533;28;20132;-76
2021/03/13 01:30:41;;;;;;;7.57;3.92;;;7.50;99.90;;;;;;5054915;28;20158;-76
2021/03/13 01:33:08;;;;;;;8.48;4.50;;;7.50;99.90;;;;;;5054148;28;20562;-77
2021/03/13 01:35:35;;;;;;;8.68;4.68;;;7.60;99.90;;;;;;5054002;28;20095;-75
2021/03/13 01:38:01;;;;;;;6.53;4.55;;;7.50;99.90;;;;;;5054297;28;20079;-75
2021/03/13 01:40:27;;;;;;;12.30;4.43;;;7.60;99.90;;;;;;5054154;28;20115;-76
2021/03/13 01:42:54;;;;;;;8.77;3.92;;;7.50;99.90;;;;;;5054090;28;20056;-76
2021/03/13 01:45:24;;;;;;;9.25;4.38;;;7.60;99.90;;;;;;5054332;28;20136;-76
2021/03/13 01:47:51;;;;;;;8.52;4.82;;;7.60;99.90;;;;;;5055200;28;20451;-79
2021/03/13 01:50:18;;;;;;;8.50;4.00;;;7.60;99.90;;;;;;5073769;28;20087;-76
2021/03/13 01:52:45;;;;;;;9.15;4.05;;;7.60;99.90;;;;;;5074076;28;20056;-77
2021/03/13 01:55:13;;;;;;;6.60;4.20;;;7.60;99.90;;;;;;5072822;28;20095;-76
2021/03/13 01:57:39;;;;;;;11.00;3.95;;;7.60;99.90;;;;;;5054143;28;20140;-77
2021/03/13 02:00:10;;;;;;;7.10;3.60;;;7.60;99.90;;;;;;5054012;28;20099;-77
2021/03/13 02:02:37;;;;;;;8.73;4.00;;;7.60;99.90;;;;;;5053768;28;20053;-78
2021/03/13 02:05:10;;;;;;;9.32;4.25;;;7.60;99.90;;;;;;5052928;28;20191;-77
2021/03/13 02:07:45;;;;;;;6.95;3.50;;;7.50;99.90;;;;;;5053554;28;20128;-77
2021/03/13 02:10:20;;;;;;;8.15;3.97;;;7.50;99.90;;;;;;5053500;28;20554;-75
2021/03/13 02:12:59;;;;;;;8.52;4.82;;;7.50;99.90;;;;;;5053556;28;20135;-77
2021/03/13 02:15:36;;;;;;;10.23;4.00;;;7.50;99.90;;;;;;5053640;28;20056;-79
2021/03/13 02:18:12;;;;;;;5.05;3.53;;;7.40;99.90;;;;;;5053526;28;20136;-77
2021/03/13 02:21:01;;;;;;;4.85;3.83;;;7.40;99.90;;;;;;5053556;28;20129;-77
2021/03/13 02:23:30;;;;;;;5.47;3.72;;;7.40;99.90;;;;;;5049755;28;20098;-77
2021/03/13 02:26:14;;;;;;;6.07;4.10;;;7.30;99.90;;;;;;5052976;28;20048;-77
2021/03/13 02:28:47;;;;;;;7.13;3.90;;;7.30;99.90;;;;;;5053905;28;20131;-77
2021/03/13 02:31:16;;;;;;;7.65;4.22;;;7.30;99.90;;;;;;5054011;28;20585;-77
2021/03/13 02:33:43;;;;;;;6.40;4.15;;;7.30;99.90;;;;;;5053708;28;20214;-77
2021/03/13 02:36:15;;;;;;;7.00;3.90;;;7.30;99.90;;;;;;5053497;28;20143;-77
2021/03/13 02:38:46;;;;;;;5.18;3.80;;;7.30;99.90;;;;;;5053758;28;20049;-76
2021/03/13 02:41:17;;;;;;;4.78;3.72;;;7.30;99.90;;;;;;5053980;28;20053;-77
2021/03/13 02:43:50;;;;;;;6.70;3.90;;;7.30;99.90;;;;;;5054168;28;20053;-76
2021/03/13 02:48:49;;;;;;;3.83;3.22;;;7.20;99.90;;;;;;5047756;28;20037;-78
2021/03/13 02:51:19;;;;;;;4.53;3.05;;;7.20;99.90;;;;;;5053211;28;20135;-77
2021/03/13 02:53:47;;;;;;;4.55;3.30;;;7.20;99.90;;;;;;5053515;28;20402;-77
2021/03/13 02:56:15;;;;;;;3.47;2.90;;;7.20;99.90;;;;;;5053550;28;20128;-78
2021/03/13 02:58:43;;;;;;;5.03;3.28;;;7.20;99.90;;;;;;5053336;28;20096;-77
2021/03/13 03:03:47;;;;;;;3.00;2.70;;;7.20;99.90;;;;;;5094386;22;20080;-78
2021/03/13 03:06:15;;;;;;;2.83;2.50;;;7.10;99.90;;;;;;5073058;28;20584;-77
2021/03/13 03:08:42;;;;;;;3.65;2.65;;;7.10;99.90;;;;;;5072908;28;20131;-78
2021/03/13 03:11:10;;;;;;;3.28;2.67;;;7.10;99.90;;;;;;5072721;28;20094;-78
2021/03/13 03:13:37;;;;;;;3.22;2.28;;;7.10;99.90;;;;;;5072524;28;20594;-77
2021/03/13 03:16:05;;;;;;;3.05;2.33;;;7.10;99.90;;;;;;5071439;28;20048;-78
2021/03/13 03:18:32;;;;;;;3.60;2.38;;;7.10;99.90;;;;;;5072482;28;20080;-78
2021/03/13 03:21:00;;;;;;;4.20;2.25;;;7.10;99.90;;;;;;5073155;28;20048;-78
2021/03/13 03:23:27;;;;;;;4.68;2.25;;;7.10;99.90;;;;;;5074012;28;20168;-78
2021/03/13 03:25:55;;;;;;;4.90;2.03;;;7.20;99.90;;;;;;5073396;28;20633;-78
2021/03/13 03:28:22;;;;;;;3.03;1.85;;;7.20;99.90;;;;;;5073582;28;20086;-78
2021/03/13 03:30:49;;;;;;;3.70;2.92;;;7.20;99.90;;;;;;5072243;28;20048;-77
2021/03/13 03:33:16;;;;;;;2.03;1.65;;;7.20;99.90;;;;;;5072510;28;20072;-77
2021/03/13 03:35:43;;;;;;;1.33;1.23;;;7.20;99.90;;;;;;5072949;28;20040;-78
2021/03/13 03:38:11;;;;;;;2.38;1.67;;;7.30;99.90;;;;;;5073010;28;20153;-77
2021/03/13 03:40:40;;;;;;;2.80;2.58;;;7.30;99.90;;;;;;5072417;28;20048;-78
2021/03/13 03:43:15;;;;;;;3.28;1.90;;;7.20;99.90;;;;;;5072118;28;20549;-78
2021/03/13 03:45:43;;;;;;;1.60;1.50;;;7.20;99.90;;;;;;5072819;28;20075;-78
2021/03/13 03:48:12;;;;;;;4.05;3.00;;;7.20;99.90;;;;;;5074515;28;20136;-78
2021/03/13 03:50:40;;;;;;;2.55;1.60;;;7.20;99.90;;;;;;5075947;28;20053;-78
2021/03/13 03:53:13;;;;;;;1.67;1.58;;;7.30;99.90;;;;;;5074823;28;20086;-78
2021/03/13 03:55:44;;;;;;;1.85;1.50;;;7.30;99.90;;;;;;5072356;28;20127;-78
2021/03/13 03:58:13;;;;;;;1.77;1.52;;;7.30;99.90;;;;;;5072548;28;20136;-78
2021/03/13 04:00:41;;;;;;;1.67;1.58;;;7.40;99.90;;;;;;5072566;28;20058;-78
2021/03/13 04:03:12;;;;;;;2.47;1.50;;;7.40;99.90;;;;;;5072751;28;20048;-78
2021/03/13 04:05:40;;;;;;;3.10;1.75;;;7.40;99.90;;;;;;5073132;28;20139;-78
2021/03/13 04:08:08;;;;;;;1.95;1.45;;;7.40;99.90;;;;;;5072360;28;20053;-77
2021/03/13 04:10:35;;;;;;;2.38;1.15;;;7.40;99.90;;;;;;5071203;28;20144;-78
2021/03/13 04:13:03;;;;;;;5.07;1.55;;;7.40;99.90;;;;;;5071989;28;20490;-77
2021/03/13 04:15:30;;;;;;;1.60;1.23;;;7.40;99.90;;;;;;5071253;28;20124;-78
2021/03/13 04:17:57;;;;;;;2.75;1.40;;;7.40;99.90;;;;;;5070765;28;20080;-77
2021/03/13 04:20:24;;;;;;;2.97;1.52;;;7.50;99.90;;;;;;5071401;28;20057;-78
2021/03/13 04:22:51;;;;;;;2.40;1.42;;;7.60;99.90;;;;;;5071019;28;20112;-78
2021/03/13 04:25:17;;;;;;;2.05;1.50;;;7.60;99.90;;;;;;5071403;28;20056;-78
2021/03/13 04:27:47;;;;;;;1.52;1.13;;;7.60;99.90;;;;;;5072699;28;20044;-77
2021/03/13 04:30:19;;;;;;;2.17;1.63;;;7.60;99.90;;;;;;5075652;28;20143;-78
2021/03/13 04:32:47;;;;;;;1.67;1.43;;;7.60;99.90;;;;;;5075508;28;20120;-77
2021/03/13 04:35:15;;;;;;;2.38;1.33;;;7.60;99.90;;;;;;5075414;28;20063;-77
2021/03/13 04:37:43;;;;;;;2.22;1.65;;;7.50;99.90;;;;;;5074901;28;20044;-78
2021/03/13 04:40:11;;;;;;;3.40;1.77;;;7.50;99.90;;;;;;5075337;28;20045;-79
2021/03/13 04:42:39;;;;;;;2.78;1.77;;;7.60;99.90;;;;;;5075156;28;20048;-78
2021/03/13 04:45:09;;;;;;;2.83;1.52;;;7.60;99.90;;;;;;5078807;28;20075;-78
2021/03/13 04:47:37;;;;;;;3.15;1.30;;;7.50;99.90;;;;;;5080990;28;20482;-78
2021/03/13 04:50:04;;;;;;;3.60;1.45;;;7.50;99.90;;;;;;5081838;28;20072;-78
2021/03/13 04:52:31;;;;;;;2.70;1.80;;;7.60;99.90;;;;;;5082166;28;20056;-78
2021/03/13 04:54:57;;;;;;;2.83;1.52;;;7.60;99.90;;;;;;5083103;28;20048;-78
2021/03/13 04:57:24;;;;;;;3.00;1.60;;;7.60;99.90;;;;;;5078511;28;20123;-78
2021/03/13 04:59:50;;;;;;;3.83;1.50;;;7.60;99.90;;;;;;5079601;28;20057;-78
2021/03/13 05:02:17;;;;;;;2.70;1.38;;;7.60;99.90;;;;;;5079694;28;20115;-78
2021/03/13 05:04:44;;;;;;;4.38;1.25;;;7.60;99.90;;;;;;5079736;28;20088;-78
2021/03/13 05:07:10;;;;;;;5.70;1.70;;;7.60;99.90;;;;;;5079562;28;20130;-78
2021/03/13 05:09:37;;;;;;;4.53;1.38;;;7.60;99.90;;;;;;5077327;28;20478;-77
2021/03/13 05:12:04;;;;;;;3.30;1.70;;;7.60;99.90;;;;;;5076217;28;20178;-77
2021/03/13 05:14:30;;;;;;;3.90;1.73;;;7.60;99.90;;;;;;5076514;28;20049;-77
2021/03/13 05:16:56;;;;;;;3.38;1.48;;;7.60;99.90;;;;;;5076279;28;20143;-77
2021/03/13 05:19:23;;;;;;;2.72;1.20;;;7.60;99.90;;;;;;5077146;28;20052;-78
2021/03/13 05:21:50;;;;;;;2.08;1.23;;;7.70;99.90;;;;;;5077026;28;20418;-77
2021/03/13 05:24:16;;;;;;;3.60;1.48;;;7.70;99.90;;;;;;5074530;28;20048;-77
2021/03/13 05:26:43;;;;;;;2.20;1.33;;;7.70;99.90;;;;;;5074571;28;20530;-78
2021/03/13 05:29:09;;;;;;;2.58;1.50;;;7.80;99.90;;;;;;5074990;28;20474;-78
2021/03/13 05:31:35;;;;;;;1.98;1.08;;;7.80;99.90;;;;;;5075989;28;20055;-78
2021/03/13 05:34:02;;;;;;;2.88;1.23;;;7.80;99.90;;;;;;5081011;28;20131;-77
2021/03/13 05:36:28;;;;;;;2.35;1.20;;;7.90;99.90;;;;;;5083619;28;20075;-78
2021/03/13 05:38:55;;;;;;;2.72;1.15;;;7.90;99.90;;;;;;5084083;28;20083;-77
2021/03/13 05:41:22;;;;;;;1.77;1.00;;;8.00;99.90;;;;;;5083209;28;20178;-77
2021/03/13 05:43:48;;;;;;;3.35;1.30;;;8.00;99.90;;;;;;5082687;28;20123;-78
2021/03/13 05:46:18;;;;;;;2.25;1.48;;;8.00;99.90;;;;;;5081173;28;20099;-78
2021/03/13 05:48:45;;;;;;;2.30;1.00;;;8.10;99.90;;;;;;5074590;28;20113;-78
2021/03/13 05:51:13;;;;;;;3.42;1.70;;;8.10;99.90;;;;;;5074361;28;20498;-78
2021/03/13 05:53:40;;;;;;;2.53;1.23;;;8.10;99.90;;;;;;5074158;28;20057;-76
2021/03/13 05:56:08;;;;;;;1.05;0.98;;;8.10;99.90;;;;;;5073620;28;20066;-76
2021/03/13 05:58:37;;;;;;;3.67;2.15;;;8.10;99.90;;;;;;5073415;28;20094;-78
2021/03/13 06:01:04;;;;;;;2.40;1.20;;;8.20;99.90;;;;;;5074063;28;20561;-77
2021/03/13 06:03:32;;;;;;;3.53;1.90;;;8.20;99.90;;;;;;5073446;28;20139;-77
2021/03/13 06:06:00;;;;;;;0.82;0.82;;;8.30;99.90;;;;;;5076268;28;20048;-78
2021/03/13 06:08:26;;;;;;;3.83;1.88;;;8.30;99.90;;;;;;5078640;28;20048;-79
2021/03/13 06:10:55;;;;;;;2.83;1.50;;;8.40;99.90;;;;;;5081831;28;20112;-79
2021/03/13 06:13:22;;;;;;;2.90;1.50;;;8.40;99.90;;;;;;5082224;28;20064;-78
2021/03/13 06:15:50;;;;;;;2.17;1.15;;;8.40;99.90;;;;;;5075248;28;20044;-78
2021/03/13 06:18:17;;;;;;;2.50;1.33;;;8.40;99.90;;;;;;5074231;28;20048;-77
2021/03/13 06:20:43;;;;;;;3.97;1.73;;;8.40;99.90;;;;;;5075380;28;20059;-79
2021/03/13 06:23:14;;;;;;;2.00;1.30;;;8.40;99.90;;;;;;5076145;28;20190;-79
2021/03/13 06:25:41;;;;;;;2.20;1.27;;;8.40;99.90;;;;;;5075565;28;20087;-79
2021/03/13 06:28:11;;;;;;;2.72;1.20;;;8.50;99.90;;;;;;5075333;28;20052;-78
2021/03/13 06:30:41;;;;;;;1.70;1.00;;;8.50;99.90;;;;;;5074624;28;20060;-78
2021/03/13 06:33:25;;;;;;;2.53;1.45;;;8.50;99.90;;;;;;5076675;28;20577;-79
2021/03/13 06:35:52;;;;;;;3.65;1.67;;;8.50;99.90;;;;;;5076958;28;20048;-79
2021/03/13 06:38:21;;;;;;;2.35;1.52;;;8.50;99.90;;;;;;5075421;28;20052;-78
2021/03/13 06:40:48;;;;;;;2.90;1.33;;;8.50;99.90;;;;;;5075942;28;20076;-78
2021/03/13 06:43:20;;;;;;;3.65;1.50;;;8.50;99.90;;;;;;5074197;28;20063;-77
2021/03/13 06:46:08;;;;;;;1.95;1.38;;;8.50;99.90;;;;;;5073201;28;20178;-78
2021/03/13 06:48:39;;;;;;;2.38;1.15;;;8.60;99.90;;;;;;5068623;28;20051;-78
2021/03/13 06:51:23;;;;;;;3.63;1.48;;;8.60;99.90;;;;;;5073613;28;20056;-78
2021/03/13 06:54:01;;;;;;;4.20;1.20;;;8.60;99.90;;;;;;5074699;28;20107;-79
2021/03/13 06:56:29;;;;;;;3.35;1.35;;;8.70;99.90;;;;;;5075273;28;20099;-79
2021/03/13 06:58:55;;;;;;;2.90;0.90;;;8.80;99.90;;;;;;5077994;28;20067;-78
2021/03/13 07:01:28;;;;;;;2.90;1.02;;;8.80;99.90;;;;;;5078983;28;20060;-80
2021/03/13 07:03:55;;;;;;;1.95;1.27;;;8.90;99.90;;;;;;5079805;28;20168;-79
2021/03/13 07:06:21;;;;;;;1.20;0.75;;;8.90;99.90;;;;;;5075581;28;20049;-79
2021/03/13 07:08:49;;;;;;;3.20;1.30;;;8.90;99.90;;;;;;5074652;28;20049;-78
2021/03/13 07:11:18;;;;;;;3.40;1.02;;;8.90;99.90;;;;;;5075165;28;20045;-79
2021/03/13 07:13:46;;;;;;;1.90;0.85;;;8.80;99.90;;;;;;5080308;28;20052;-79
2021/03/13 07:16:31;;;;;;;2.63;1.00;;;8.90;99.90;;;;;;5083197;28;20044;-80
2021/03/13 07:19:01;;;;;;;3.70;1.08;;;8.90;99.90;;;;;;5086717;28;20177;-79
2021/03/13 07:21:29;;;;;;;1.40;0.70;;;9.00;99.90;;;;;;5086263;28;20048;-80
2021/03/13 07:24:02;;;;;;;3.72;1.30;;;9.00;99.90;;;;;;5081917;28;20073;-81
2021/03/13 07:26:35;;;;;;;1.85;0.95;;;9.00;99.90;;;;;;5082010;28;20045;-81
2021/03/13 07:29:03;;;;;;;1.58;1.00;;;9.10;99.90;;;;;;5082196;28;20093;-81
2021/03/13 07:31:33;;;;;;;5.78;1.35;;;9.10;99.90;;;;;;5080433;28;20045;-80
2021/03/13 07:34:01;;;;;;;4.50;1.02;;;9.10;99.90;;;;;;5081727;28;20052;-78
2021/03/13 07:36:28;;;;;;;3.80;2.00;;;9.10;99.90;;;;;;5081396;28;20045;-81
2021/03/13 07:39:02;;;;;;;4.88;2.08;;;8.90;99.90;;;;;;5082420;28;20452;-81
2021/03/13 07:41:36;;;;;;;4.05;1.90;;;8.80;99.90;;;;;;5082752;28;20048;-81
2021/03/13 07:44:04;;;;;;;3.55;1.92;;;8.70;99.90;;;;;;5082533;28;20052;-83
2021/03/13 07:46:33;;;;;;;10.38;2.15;;;8.60;99.90;;;;;;5081521;28;20041;-80
2021/03/13 07:49:00;;;;;;;2.63;1.48;;;7.90;99.90;;;;;;5078424;28;20052;-78
2021/03/13 07:51:26;;;;;;;6.75;1.60;;;7.10;99.90;;;;;;5076783;28;20049;-78
2021/03/13 07:53:54;;;;;;;2.28;1.48;;;6.80;99.90;;;;;;5075001;28;20079;-80
2021/03/13 07:56:21;;;;;;;5.40;1.15;;;6.50;99.90;;;;;;5074145;28;20472;-78
2021/03/13 07:58:48;;;;;;;2.95;1.67;;;6.40;99.90;;;;;;5071388;28;20048;-78
2021/03/13 08:01:14;;;;;;;2.60;1.20;;;6.40;99.90;;;;;;5072822;28;20063;-78
2021/03/13 08:03:48;;;;;;;3.03;1.70;;;6.50;99.90;;;;;;5072100;28;20060;-78
2021/03/13 08:06:16;;;;;;;2.15;1.23;;;6.50;99.90;;;;;;5071723;28;20048;-78
2021/03/13 08:08:43;;;;;;;3.67;1.95;;;6.50;99.90;;;;;;5072391;28;20052;-79
2021/03/13 08:11:11;;;;;;;6.35;2.03;;;6.60;99.90;;;;;;5072251;28;20052;-78
2021/03/13 08:13:52;;;;;;;2.33;1.45;;;6.70;99.90;;;;;;5067996;28;20509;-78
2021/03/13 08:16:30;;;;;;;2.45;1.80;;;6.70;99.90;;;;;;5069446;28;20074;-78
2021/03/13 08:18:58;;;;;;;4.45;1.73;;;6.70;99.90;;;;;;5071707;28;20056;-77
2021/03/13 08:21:44;;;;;;;7.22;3.25;;;6.70;99.90;;;;;;5071351;28;20073;-80
2021/03/13 08:24:12;;;;;;;8.20;4.40;;;6.80;99.90;;;;;;5070628;28;20083;-79
2021/03/13 08:27:05;;;;;;;9.25;5.28;;;6.90;99.90;;;;;;5072094;28;20048;-78
2021/03/13 08:29:49;;;;;;;;;;;7.00;99.90;;;;;;5074239;28;20127;-79
2021/03/13 08:32:16;;;;;;;4.93;2.30;;;7.10;99.90;;;;;;5075200;28;19921;-79
2021/03/13 08:34:45;;;;;;;3.03;1.63;;;7.20;99.90;;;;;;5077734;28;20056;-80
2021/03/13 08:37:16;;;;;;;3.80;2.45;;;7.30;99.90;;;;;;5078639;28;20051;-80
2021/03/13 08:39:43;;;;;;;3.30;1.45;;;7.40;99.90;;;;;;5078140;28;20048;-80
2021/03/13 08:42:09;;;;;;;4.50;1.45;;;7.50;99.90;;;;;;5078410;28;20048;-80
2021/03/13 08:44:37;;;;;;;3.25;1.73;;;7.60;99.90;;;;;;5075818;28;20052;-79
2021/03/13 08:47:07;;;;;;;2.90;1.80;;;7.70;99.90;;;;;;5074830;28;20052;-79
2021/03/13 08:49:39;;;;;;;4.07;2.55;;;7.80;99.90;;;;;;5068592;28;20048;-80
2021/03/13 08:52:26;;;;;;;3.30;1.60;;;7.80;99.90;;;;;;5077673;28;20539;-80
2021/03/13 08:54:54;;;;;;;4.75;1.90;;;7.80;99.90;;;;;;5075992;28;20045;-82
2021/03/13 08:57:44;;;;;;;4.68;1.65;;;7.80;99.90;;;;;;5079221;28;20048;-81
2021/03/13 09:00:20;;;;;;;3.53;1.75;;;7.90;99.90;;;;;;5073150;28;20052;-80
2021/03/13 09:02:50;;;;;;;4.68;3.15;;;8.00;99.90;;;;;;5102736;22;20071;-79
2021/03/13 09:05:22;;;;;;;4.55;1.75;;;8.00;99.90;;;;;;5071512;28;20044;-83
2021/03/13 09:07:52;;;;;;;5.15;2.08;;;8.10;99.90;;;;;;5088170;28;20123;-82
2021/03/13 09:10:20;;;;;;;4.95;2.13;;;8.10;99.90;;;;;;5090824;28;20112;-80
2021/03/13 09:12:47;;;;;;;6.13;2.15;;;8.10;99.90;;;;;;5089075;28;20048;-80
2021/03/13 09:15:15;;;;;;;4.35;2.50;;;8.20;99.90;;;;;;5089175;28;20053;-78
2021/03/13 09:17:43;;;;;;;4.93;2.67;;;8.20;99.90;;;;;;5092519;28;20048;-82
2021/03/13 09:20:12;;;;;;;6.03;2.42;;;8.20;99.90;;;;;;5092332;28;20044;-78
2021/03/13 09:22:39;;;;;;;8.20;2.55;;;8.30;99.90;;;;;;5090410;28;20348;-79
2021/03/13 09:25:10;;;;;;;7.70;2.50;;;8.30;99.90;;;;;;5087287;28;20049;-80
2021/03/13 09:27:37;;;;;;;5.40;2.50;;;8.30;99.90;;;;;;5091201;28;20045;-80
2021/03/13 09:30:08;;;;;;;8.25;3.20;;;8.40;99.90;;;;;;5087897;28;20048;-79
2021/03/13 09:32:42;;;;;;;5.57;2.47;;;8.30;99.90;;;;;;5086347;28;20060;-78
2021/03/13 09:35:09;;;;;;;7.05;2.60;;;8.30;99.90;;;;;;5087252;28;20417;-78
2021/03/13 09:37:36;;;;;;;6.88;2.78;;;8.30;99.90;;;;;;5083187;28;20044;-79
2021/03/13 09:40:05;;;;;;;7.28;3.65;;;8.30;99.90;;;;;;5089954;28;20082;-78
2021/03/13 09:42:34;;;;;;;9.07;2.55;;;8.30;99.90;;;;;;5088715;28;20049;-80
2021/03/13 09:45:03;;;;;;;9.05;2.60;;;8.30;99.90;;;;;;5087122;28;20048;-78
2021/03/13 09:47:33;;;;;;;5.20;2.78;;;8.40;99.90;;;;;;5088289;28;20076;-79
2021/03/13 09:50:01;;;;;;;4.72;2.58;;;8.40;99.90;;;;;;5087158;28;20234;-78
2021/03/13 09:52:31;;;;;;;7.50;2.45;;;8.50;99.90;;;;;;5086548;28;20294;-78
2021/03/13 09:55:04;;;;;;;6.63;3.03;;;8.60;99.90;;;;;;5087822;28;20421;-78
2021/03/13 09:57:31;;;;;;;7.30;2.63;;;8.60;99.90;;;;;;5081476;28;20049;-79
2021/03/13 09:59:59;;;;;;;8.43;2.80;;;8.60;99.90;;;;;;5081737;28;20048;-78
2021/03/13 10:02:26;;;;;;;10.95;2.65;;;8.50;99.90;;;;;;5083188;28;20055;-78
2021/03/13 10:04:54;;;;;;;8.20;3.05;;;8.60;99.90;;;;;;5081720;28;20056;-78
2021/03/13 10:07:21;;;;;;;11.00;3.20;;;8.60;99.90;;;;;;5085386;28;20048;-80
2021/03/13 10:09:55;;;;;;;10.00;2.78;;;8.60;99.90;;;;;;5092001;28;20044;-81
2021/03/13 10:12:30;;;;;;;10.90;3.13;;;8.80;99.90;;;;;;5092294;28;20079;-82
2021/03/13 10:15:10;;;;;;;7.38;2.42;;;9.00;99.90;;;;;;5091241;28;20059;-81
2021/03/13 10:17:49;;;;;;;13.00;3.38;;;9.00;99.90;;;;;;5090134;28;20049;-81
2021/03/13 10:20:17;;;;;;;9.25;2.92;;;9.10;99.90;;;;;;5090821;28;20048;-82
2021/03/13 10:22:44;;;;;;;8.75;3.05;;;9.20;99.90;;;;;;5091246;28;20048;-80
2021/03/13 10:25:11;;;;;;;10.63;3.13;;;9.40;99.90;;;;;;5089474;28;20049;-81
2021/03/13 10:27:37;;;;;;;9.35;3.83;;;9.60;99.90;;;;;;5090634;28;20044;-80
2021/03/13 10:30:07;;;;;;;7.65;2.72;;;9.70;99.90;;;;;;5090600;28;20048;-79
2021/03/13 10:32:35;;;;;;;12.38;3.20;;;9.90;99.90;;;;;;5091400;28;20052;-80
2021/03/13 10:35:21;;;;;;;6.60;3.65;;;9.90;99.90;;;;;;5089348;28;20048;-78
2021/03/13 10:37:50;;;;;;;11.77;4.22;;;9.90;99.90;;;;;;5091939;28;20104;-80
2021/03/13 10:40:42;;;;;;;14.13;4.30;;;10.00;99.90;;;;;;5093692;28;20055;-80
2021/03/13 10:43:29;;;;;;;8.38;3.10;;;10.00;99.90;;;;;;5093750;28;20056;-81
2021/03/13 10:46:05;;;;;;;9.52;3.90;;;10.00;99.90;;;;;;5090542;28;20132;-82
2021/03/13 10:48:34;;;;;;;11.35;3.00;;;10.00;99.90;;;;;;5091374;28;20056;-80
2021/03/13 10:51:02;;;;;;;10.13;3.40;;;9.90;99.90;;;;;;5089667;28;20052;-79
2021/03/13 10:53:31;;;;;;;8.90;3.03;;;9.90;99.90;;;;;;5089348;28;20098;-81
2021/03/13 10:55:59;;;;;;;12.13;4.10;;;9.90;99.90;;;;;;5088969;28;20048;-81
2021/03/13 10:58:27;;;;;;;9.10;3.25;;;10.00;99.90;;;;;;5087958;28;20056;-81
2021/03/13 11:00:54;;;;;;;8.85;3.45;;;10.20;99.90;;;;;;5089581;28;20106;-81
2021/03/13 11:03:23;;;;;;;10.93;3.40;;;10.30;99.90;;;;;;5089430;28;20472;-82
2021/03/13 11:05:51;;;;;;;9.63;3.28;;;10.20;99.90;;;;;;5090749;28;20052;-83
2021/03/13 11:08:18;;;;;;;8.90;2.80;;;10.10;99.90;;;;;;5089389;28;20079;-82
2021/03/13 11:10:44;;;;;;;11.43;2.90;;;9.90;99.90;;;;;;5086156;28;20055;-80
2021/03/13 11:13:11;;;;;;;10.23;3.20;;;9.90;99.90;;;;;;5086974;28;20059;-81
2021/03/13 11:15:37;;;;;;;12.25;3.40;;;9.90;99.90;;;;;;5088370;28;20628;-82
2021/03/13 11:18:05;;;;;;;10.95;3.40;;;10.00;99.90;;;;;;5070195;28;20045;-80
2021/03/13 11:20:32;;;;;;;16.27;3.70;;;10.10;99.90;;;;;;5067921;28;20319;-79
2021/03/13 11:22:59;;;;;;;11.52;3.65;;;10.10;99.90;;;;;;5069404;28;20052;-80
2021/03/13 11:25:26;;;;;;;6.97;2.95;;;10.10;99.90;;;;;;5074583;28;20048;-79
2021/03/13 11:27:52;;;;;;;10.90;3.40;;;10.00;99.90;;;;;;5086245;28;20040;-83
2021/03/13 11:30:19;;;;;;;11.20;3.50;;;9.90;99.90;;;;;;5089956;28;20048;-83
2021/03/13 11:32:46;;;;;;;11.00;4.30;;;9.80;99.90;;;;;;5094259;28;20060;-79
2021/03/13 11:35:13;;;;;;;14.82;3.65;;;9.80;99.90;;;;;;5094347;28;20040;-85
2021/03/13 11:37:41;;;;;;;11.13;3.35;;;9.80;99.90;;;;;;5091781;28;20044;-80
2021/03/13 11:40:09;;;;;;;12.75;3.60;;;9.80;99.90;;;;;;5087561;28;20048;-81
2021/03/13 11:42:36;;;;;;;13.80;4.22;;;9.90;99.90;;;;;;5085926;28;20056;-80
2021/03/13 11:45:05;;;;;;;11.77;3.45;;;9.80;99.90;;;;;;5085974;28;20052;-78
2021/03/13 11:47:31;;;;;;;9.68;4.10;;;9.80;99.90;;;;;;5083693;28;20045;-80
2021/03/13 11:49:58;;;;;;;13.95;3.92;;;10.00;99.90;;;;;;5085226;28;20044;-82
2021/03/13 11:52:24;;;;;;;22.92;4.35;;;10.10;99.90;;;;;;5085692;28;20409;-80
2021/03/13 11:54:52;;;;;;;12.75;4.25;;;10.10;99.90;;;;;;5089972;28;20142;-84
2021/03/13 11:57:19;;;;;;;14.35;4.07;;;10.10;99.90;;;;;;5087050;28;20051;-81
2021/03/13 11:59:47;;;;;;;16.63;3.95;;;10.30;99.90;;;;;;5091713;28;20052;-78
2021/03/13 12:02:14;;;;;;;12.35;3.65;;;10.10;99.90;;;;;;5095929;28;20036;-79
2021/03/13 12:04:41;;;;;;;11.35;3.35;;;10.20;99.90;;;;;;5087788;28;20056;-79
2021/03/13 12:07:08;;;;;;;12.73;3.10;;;9.90;99.90;;;;;;5080362;28;20044;-79
2021/03/13 12:09:35;;;;;;;8.45;3.20;;;9.60;99.90;;;;;;5089123;28;20618;-77
2021/03/13 12:12:06;;;;;;;13.85;3.35;;;9.30;99.90;;;;;;5089630;28;20059;-80
2021/03/13 12:14:33;;;;;;;9.93;3.53;;;9.20;99.90;;;;;;5086371;28;20073;-80
2021/03/13 12:17:00;;;;;;;13.05;3.92;;;9.20;99.90;;;;;;5081711;28;20083;-81
2021/03/13 12:19:27;;;;;;;13.38;3.75;;;9.30;99.90;;;;;;5084607;28;20053;-80
2021/03/13 12:21:54;;;;;;;17.20;5.32;;;9.40;99.90;;;;;;5078664;28;20060;-80
2021/03/13 12:24:21;;;;;;;17.30;3.95;;;9.50;99.90;;;;;;5076717;28;20052;-79
2021/03/13 12:26:47;;;;;;;12.77;4.03;;;9.70;99.90;;;;;;5076881;28;20101;-81
2021/03/13 12:29:15;;;;;;;13.32;4.32;;;9.70;99.90;;;;;;5075629;28;20098;-81
2021/03/13 12:31:42;;;;;;;15.98;4.45;;;9.70;99.90;;;;;;5078288;28;20052;-81
2021/03/13 12:34:09;;;;;;;15.05;4.75;;;9.40;99.90;;;;;;5083278;28;20044;-81
2021/03/13 12:36:35;;;;;;;12.00;3.92;;;9.10;99.90;;;;;;5095883;28;20421;-81
2021/03/13 12:39:02;;;;;;;13.57;4.00;;;9.00;99.90;;;;;;5097714;28;20097;-81
2021/03/13 12:41:29;;;;;;;13.10;4.22;;;9.00;99.90;;;;;;5099303;28;20052;-83
2021/03/13 12:43:55;;;;;;;20.75;4.57;;;8.90;99.90;;;;;;5106453;28;20050;-83
2021/03/13 12:46:23;;;;;;;22.48;5.85;;;8.90;99.90;;;;;;5108517;28;20048;-80
2021/03/13 12:48:49;;;;;;;15.57;4.45;;;8.80;99.90;;;;;;5109709;28;20055;-83
2021/03/13 12:51:17;;;;;;;15.00;4.78;;;8.80;99.90;;;;;;5110576;28;20086;-83
2021/03/13 12:53:44;;;;;;;13.30;3.67;;;8.30;99.90;;;;;;5110654;28;20059;-83
2021/03/13 12:56:11;;;;;;;15.18;3.72;;;7.90;99.90;;;;;;5109497;28;20531;-84
2021/03/13 12:58:38;;;;;;;14.45;3.80;;;7.70;99.90;;;;;;5112157;28;20091;-84
2021/03/13 13:01:09;;;;;;;12.25;3.45;;;7.80;99.90;;;;;;5110969;28;20044;-82
2021/03/13 13:03:36;;;;;;;12.15;3.70;;;8.10;99.90;;;;;;5111263;28;20074;-83
2021/03/13 13:06:21;;;;;;;15.38;4.00;;;8.30;99.90;;;;;;5099226;28;20078;-82